createdAt,value
2022-09-28T00:01:30.592Z,98867.38
2022-09-28T00:03:58.806Z,98861.06
2022-09-28T00:06:28.277Z,98857.50
2022-09-28T00:08:55.822Z,98848.69
2022-09-28T00:11:23.958Z,98855.22
2022-09-28T00:13:53.742Z,98844.13
2022-09-28T00:16:24.221Z,98852.59
2022-09-28T00:18:52.362Z,98843.25
2022-09-28T00:21:22.344Z,98855.38
2022-09-28T00:24:11.698Z,98836.59
2022-09-28T00:26:44.868Z,98843.13
2022-09-28T00:29:18.403Z,98832.81
2022-09-28T00:31:46.270Z,98831.72
2022-09-28T00:34:14.103Z,98822.09
2022-09-28T00:36:44.379Z,98818.97
2022-09-28T00:39:14.466Z,98818.47
2022-09-28T00:41:42.676Z,98817.03
2022-09-28T00:44:24.688Z,98813.13
2022-09-28T00:47:27.069Z,98804.28
2022-09-28T00:50:20.149Z,98800.53
2022-09-28T00:52:54.081Z,98807.69
2022-09-28T00:55:30.986Z,98794.50
2022-09-28T00:58:03.475Z,98794.81
2022-09-28T01:00:30.672Z,98791.53
2022-09-28T01:02:58.686Z,98792.53
2022-09-28T01:05:27.548Z,98795.50
2022-09-28T01:07:57.166Z,98780.81
2022-09-28T01:10:24.333Z,98773.75
2022-09-28T01:12:51.250Z,98777.84
2022-09-28T01:15:21.929Z,98776.53
2022-09-28T01:17:54.514Z,98774.59
2022-09-28T01:20:39.941Z,98765.63
2022-09-28T01:23:21.564Z,98759.25
2022-09-28T01:26:23.815Z,98761.19
2022-09-28T01:28:58.330Z,98752.41
2022-09-28T01:31:29.886Z,98753.59
2022-09-28T01:34:11.717Z,98748.53
2022-09-28T01:36:44.216Z,98744.13
2022-09-28T01:39:15.628Z,98746.72
2022-09-28T01:41:46.155Z,98743.94
2022-09-28T01:44:17.997Z,98746.56
2022-09-28T01:46:48.965Z,98740.03
2022-09-28T01:49:18.737Z,98741.50
2022-09-28T01:52:11.369Z,98724.22
2022-09-28T01:54:50.327Z,98730.28
2022-09-28T01:57:26.535Z,98726.34
2022-09-28T02:00:13.189Z,98730.44
2022-09-28T02:03:09.807Z,98718.19
2022-09-28T02:05:51.300Z,98713.59
2022-09-28T02:08:28.543Z,98717.84
2022-09-28T02:11:03.835Z,98709.53
2022-09-28T02:13:37.544Z,98706.56
2022-09-28T02:16:18.849Z,98695.50
2022-09-28T02:18:46.527Z,98698.91
2022-09-28T02:21:25.922Z,98687.50
2022-09-28T02:24:06.878Z,98695.31
2022-09-28T02:26:39.481Z,98687.16
2022-09-28T02:29:06.427Z,98687.66
2022-09-28T02:31:33.450Z,98683.78
2022-09-28T02:34:00.936Z,98678.41
2022-09-28T02:36:28.748Z,98682.31
2022-09-28T02:38:57.801Z,98676.44
2022-09-28T02:41:45.681Z,98669.88
2022-09-28T02:44:39.026Z,98670.56
2022-09-28T02:47:15.225Z,98671.53
2022-09-28T02:50:01.195Z,98672.22
2022-09-28T02:53:22.149Z,98667.31
2022-09-28T02:56:10.961Z,98656.88
2022-09-28T02:58:58.229Z,98659.47
2022-09-28T03:01:43.870Z,98657.38
2022-09-28T03:04:13.864Z,98659.03
2022-09-28T03:06:47.505Z,98650.72
2022-09-28T03:09:19.331Z,98660.13
2022-09-28T03:11:52.035Z,98656.88
2022-09-28T03:14:19.558Z,98657.69
2022-09-28T03:16:52.229Z,98647.75
2022-09-28T03:19:26.781Z,98648.09
2022-09-28T03:21:55.377Z,98649.06
2022-09-28T03:24:22.441Z,98643.06
2022-09-28T03:26:49.987Z,98642.91
2022-09-28T03:29:17.251Z,98641.44
2022-09-28T03:31:48.012Z,98639.44
2022-09-28T03:34:15.535Z,98632.63
2022-09-28T03:36:43.145Z,98636.69
2022-09-28T03:39:10.171Z,98621.00
2022-09-28T03:41:38.420Z,98626.88
2022-09-28T03:44:05.480Z,98620.41
2022-09-28T03:46:33.427Z,98620.88
2022-09-28T03:49:05.524Z,98610.56
2022-09-28T03:51:32.540Z,98612.53
2022-09-28T03:53:59.690Z,98609.13
2022-09-28T03:56:26.978Z,98603.75
2022-09-28T03:58:54.005Z,98604.88
2022-09-28T04:01:21.018Z,98601.13
2022-09-28T04:03:53.001Z,98599.66
2022-09-28T04:06:20.137Z,98597.56
2022-09-28T04:08:46.979Z,98577.81
2022-09-28T04:11:14.175Z,98588.59
2022-09-28T04:13:41.396Z,98587.94
2022-09-28T04:16:11.831Z,98583.19
2022-09-28T04:18:43.350Z,98581.06
2022-09-28T04:21:19.618Z,98583.19
2022-09-28T04:24:01.872Z,98582.38
2022-09-28T04:26:30.520Z,98582.53
2022-09-28T04:29:15.851Z,98581.22
2022-09-28T04:32:03.056Z,98577.28
2022-09-28T04:34:37.986Z,98573.53
2022-09-28T04:37:07.798Z,98573.03
2022-09-28T04:39:34.725Z,98571.03
2022-09-28T04:42:02.027Z,98570.06
2022-09-28T04:44:29.387Z,98566.31
2022-09-28T04:47:05.490Z,98568.59
2022-09-28T04:49:35.461Z,98565.97
2022-09-28T04:52:18.543Z,98563.66
2022-09-28T04:54:48.569Z,98568.56
2022-09-28T04:57:16.566Z,98560.22
2022-09-28T04:59:43.694Z,98555.63
2022-09-28T05:02:12.163Z,98546.81
2022-09-28T05:05:11.584Z,98551.16
2022-09-28T05:08:18.296Z,98549.53
2022-09-28T05:10:45.681Z,98552.44
2022-09-28T05:13:14.146Z,98544.44
2022-09-28T05:15:42.881Z,98541.47
2022-09-28T05:18:10.035Z,98537.56
2022-09-28T05:20:50.851Z,98535.28
2022-09-28T05:23:18.241Z,98539.97
2022-09-28T05:25:46.087Z,98533.91
2022-09-28T05:28:27.452Z,98536.47
2022-09-28T05:31:12.749Z,98538.47
2022-09-28T05:34:15.358Z,98533.50
2022-09-28T05:36:42.975Z,98536.31
2022-09-28T05:39:09.974Z,98534.59
2022-09-28T05:41:37.038Z,98532.44
2022-09-28T05:44:04.980Z,98532.94
2022-09-28T05:46:31.902Z,98526.94
2022-09-28T05:49:00.925Z,98524.13
2022-09-28T05:51:28.227Z,98523.13
2022-09-28T05:53:56.178Z,98523.81
2022-09-28T05:56:25.638Z,98517.97
2022-09-28T05:58:53.024Z,98513.09
2022-09-28T06:01:22.024Z,98525.28
2022-09-28T06:03:49.366Z,98515.97
2022-09-28T06:06:16.723Z,98510.25
2022-09-28T06:08:46.437Z,98511.00
2022-09-28T06:11:28.052Z,98508.31
2022-09-28T06:13:57.595Z,98505.53
2022-09-28T06:16:27.888Z,98504.03
2022-09-28T06:18:54.805Z,98505.63
2022-09-28T06:21:40.182Z,98507.56
2022-09-28T06:24:07.867Z,98502.03
2022-09-28T06:26:36.260Z,98504.50
2022-09-28T06:29:04.310Z,98513.75
2022-09-28T06:31:31.496Z,98515.84
2022-09-28T06:34:01.939Z,98513.31
2022-09-28T06:36:31.445Z,98509.81
2022-09-28T06:38:58.688Z,98510.50
2022-09-28T06:41:25.849Z,98518.97
2022-09-28T06:43:53.253Z,98513.41
2022-09-28T06:46:40.304Z,98518.47
2022-09-28T06:49:27.882Z,98511.44
2022-09-28T06:52:15.122Z,98508.47
2022-09-28T06:55:01.794Z,98514.50
2022-09-28T06:57:46.957Z,98502.41
2022-09-28T07:00:14.796Z,98498.19
2022-09-28T07:02:44.780Z,98508.13
2022-09-28T07:05:37.053Z,98500.56
2022-09-28T07:08:30.117Z,98492.63
2022-09-28T07:11:26.916Z,98491.31
2022-09-28T07:14:24.815Z,98494.53
2022-09-28T07:17:12.696Z,98488.31
2022-09-28T07:19:40.872Z,98499.06
2022-09-28T07:22:07.958Z,98493.16
2022-09-28T07:24:34.933Z,98480.25
2022-09-28T07:27:37.136Z,98492.78
2022-09-28T07:30:17.630Z,98496.22
2022-09-28T07:33:14.655Z,98494.88
2022-09-28T07:35:55.399Z,98492.69
2022-09-28T07:38:29.795Z,98494.69
2022-09-28T07:41:14.000Z,98486.28
2022-09-28T07:43:46.974Z,98492.69
2022-09-28T07:46:13.985Z,98489.09
2022-09-28T07:48:49.659Z,98482.50
2022-09-28T07:51:24.851Z,98486.13
2022-09-28T07:54:17.987Z,98488.91
2022-09-28T07:57:17.335Z,98486.47
2022-09-28T07:59:53.691Z,98482.13
2022-09-28T08:02:35.273Z,98477.81
2022-09-28T08:05:02.817Z,98466.25
2022-09-28T08:07:29.820Z,98468.41
2022-09-28T08:10:03.137Z,98468.94
2022-09-28T08:12:30.276Z,98466.88
2022-09-28T08:15:06.776Z,98468.22
2022-09-28T08:17:48.502Z,98462.88
2022-09-28T08:20:35.915Z,98474.16
2022-09-28T08:23:07.370Z,98467.00
2022-09-28T08:25:38.935Z,98465.56
2022-09-28T08:28:07.448Z,98468.19
2022-09-28T08:30:40.596Z,98468.25
2022-09-28T08:33:25.907Z,98465.53
2022-09-28T08:36:11.690Z,98469.44
2022-09-28T08:38:54.130Z,98470.78
2022-09-28T08:41:39.685Z,98463.34
2022-09-28T08:44:48.610Z,98460.75
2022-09-28T08:48:14.748Z,98469.22
2022-09-28T08:51:22.481Z,98457.56
2022-09-28T08:54:24.481Z,98469.22
2022-09-28T08:57:17.849Z,98451.25
2022-09-28T08:59:52.356Z,98460.63
2022-09-28T09:02:39.764Z,98460.44
2022-09-28T09:05:19.247Z,98461.97
2022-09-28T09:08:18.705Z,98465.72
2022-09-28T09:11:07.594Z,98466.66
2022-09-28T09:13:41.052Z,98471.84
2022-09-28T09:16:37.987Z,98468.47
2022-09-28T09:19:47.117Z,98464.09
2022-09-28T09:22:38.785Z,98462.78
2022-09-28T09:25:21.636Z,98458.22
2022-09-28T09:28:28.453Z,98466.81
2022-09-28T09:31:27.879Z,98463.25
2022-09-28T09:34:17.384Z,98467.38
2022-09-28T09:37:01.201Z,98469.00
2022-09-28T09:39:56.255Z,98478.25
2022-09-28T09:43:31.559Z,98481.41
2022-09-28T09:46:33.935Z,98478.59
2022-09-28T09:49:30.563Z,98471.50
2022-09-28T09:52:28.014Z,98471.31
2022-09-28T09:55:15.213Z,98463.78
2022-09-28T09:58:13.104Z,98460.22
2022-09-28T10:00:47.391Z,98465.94
2022-09-28T10:03:30.457Z,98454.22
2022-09-28T10:06:16.359Z,98467.84
2022-09-28T10:08:52.489Z,98462.38
2022-09-28T10:11:31.784Z,98461.59
2022-09-28T10:13:59.542Z,98469.28
2022-09-28T10:16:38.685Z,98473.72
2022-09-28T10:19:13.453Z,98474.34
2022-09-28T10:22:02.223Z,98468.47
2022-09-28T10:24:38.823Z,98481.75
2022-09-28T10:27:19.424Z,98478.72
2022-09-28T10:29:54.121Z,98477.91
2022-09-28T10:32:24.226Z,98479.09
2022-09-28T10:35:14.880Z,98476.28
2022-09-28T10:37:59.973Z,98466.56
2022-09-28T10:40:59.638Z,98468.00
2022-09-28T10:43:38.963Z,98462.34
2022-09-28T10:46:21.353Z,98460.50
2022-09-28T10:48:56.508Z,98470.41
2022-09-28T10:51:51.754Z,98451.00
2022-09-28T10:54:26.451Z,98461.94
2022-09-28T10:56:58.749Z,98470.25
2022-09-28T10:59:37.502Z,98458.88
2022-09-28T11:02:35.469Z,98463.72
2022-09-28T11:05:22.508Z,98459.66
2022-09-28T11:07:52.886Z,98461.13
2022-09-28T11:10:30.290Z,98461.34
2022-09-28T11:13:03.058Z,98469.06
2022-09-28T11:15:33.546Z,98471.69
2022-09-28T11:18:29.678Z,98471.44
2022-09-28T11:21:17.105Z,98466.06
2022-09-28T11:24:08.105Z,98474.06
2022-09-28T11:26:46.525Z,98473.69
2022-09-28T11:29:44.311Z,98474.91
2022-09-28T11:32:30.763Z,98483.38
2022-09-28T11:35:23.134Z,98484.00
2022-09-28T11:37:54.774Z,98481.81
2022-09-28T11:41:00.587Z,98478.16
2022-09-28T11:43:52.085Z,98471.50
2022-09-28T11:46:52.129Z,98475.75
2022-09-28T11:49:28.113Z,98475.13
2022-09-28T11:51:59.363Z,98470.06
2022-09-28T11:54:51.950Z,98478.41
2022-09-28T11:57:24.673Z,98475.38
2022-09-28T12:00:20.869Z,98473.56
2022-09-28T12:03:08.284Z,98478.81
2022-09-28T12:05:42.694Z,98471.94
2022-09-28T12:08:17.422Z,98485.47
2022-09-28T12:11:32.531Z,98481.44
2022-09-28T12:14:24.452Z,98493.72
2022-09-28T12:17:06.779Z,98488.09
2022-09-28T12:19:59.497Z,98490.69
2022-09-28T12:22:35.486Z,98490.69
2022-09-28T12:25:04.194Z,98486.22
2022-09-28T12:27:41.601Z,98492.84
2022-09-28T12:30:20.390Z,98490.28
2022-09-28T12:32:53.149Z,98492.31
2022-09-28T12:35:27.485Z,98488.66
2022-09-28T12:38:19.407Z,98483.41
2022-09-28T12:41:05.675Z,98484.84
2022-09-28T12:44:10.222Z,98476.78
2022-09-28T12:46:47.805Z,98477.63
2022-09-28T12:52:53.200Z,98476.22
2022-09-28T12:55:51.158Z,98481.47
2022-09-28T12:58:36.795Z,98477.44
2022-09-28T13:01:57.856Z,98475.78
2022-09-28T13:04:30.061Z,98482.03
2022-09-28T13:07:08.381Z,98491.53
2022-09-28T13:10:19.861Z,98490.13
2022-09-28T13:13:04.662Z,98486.69
2022-09-28T13:15:50.226Z,98491.50
2022-09-28T13:18:39.390Z,98490.22
2022-09-28T13:21:22.151Z,98493.28
2022-09-28T13:23:57.852Z,98490.03
2022-09-28T13:26:42.173Z,98493.09
2022-09-28T13:29:16.940Z,98495.25
2022-09-28T13:31:51.627Z,98503.00
2022-09-28T13:34:22.771Z,98493.38
2022-09-28T13:37:22.155Z,98481.06
2022-09-28T13:39:53.723Z,98476.59
2022-09-28T13:42:45.073Z,98478.22
2022-09-28T13:45:21.126Z,98477.16
2022-09-28T13:48:00.326Z,98479.75
2022-09-28T13:50:54.962Z,98474.69
2022-09-28T13:53:27.449Z,98470.97
2022-09-28T13:56:26.439Z,98481.09
2022-09-28T13:59:01.460Z,98490.44
2022-09-28T14:01:36.567Z,98481.56
2022-09-28T14:04:24.631Z,98483.53
2022-09-28T14:06:55.486Z,98477.47
2022-09-28T14:09:41.048Z,98490.03
2022-09-28T14:12:35.255Z,98495.72
2022-09-28T14:15:06.616Z,98498.47
2022-09-28T14:17:45.731Z,98500.75
2022-09-28T14:20:18.847Z,98500.91
2022-09-28T14:22:47.322Z,98503.84
2022-09-28T14:25:36.416Z,98506.44
2022-09-28T14:28:03.240Z,98501.56
2022-09-28T14:30:42.068Z,98503.34
2022-09-28T14:33:21.118Z,98507.47
2022-09-28T14:35:56.608Z,98503.03
2022-09-28T14:38:48.078Z,98516.41
2022-09-28T14:41:34.596Z,98511.78
2022-09-28T14:44:03.737Z,98524.59
2022-09-28T14:46:35.719Z,98526.38
2022-09-28T14:49:17.867Z,98531.81
2022-09-28T14:52:03.470Z,98534.75
2022-09-28T14:54:49.419Z,98545.78
2022-09-28T14:57:19.891Z,98543.72
2022-09-28T14:59:47.947Z,98547.09
2022-09-28T15:02:18.505Z,98554.84
2022-09-28T15:05:01.439Z,98560.47
2022-09-28T15:07:47.700Z,98567.00
2022-09-28T15:10:31.452Z,98577.50
2022-09-28T15:13:01.956Z,98576.19
2022-09-28T15:15:35.717Z,98570.97
2022-09-28T15:18:19.360Z,98571.75
2022-09-28T15:20:49.147Z,98578.69
2022-09-28T15:23:37.430Z,98581.28
2022-09-28T15:26:09.313Z,98581.81
2022-09-28T15:28:43.345Z,98597.25
2022-09-28T15:31:18.368Z,98599.13
2022-09-28T15:34:03.863Z,98600.16
2022-09-28T15:36:36.458Z,98602.41
2022-09-28T15:39:10.583Z,98589.91
2022-09-28T15:41:37.871Z,98607.91
2022-09-28T15:44:17.098Z,98603.47
2022-09-28T15:46:48.001Z,98600.47
2022-09-28T15:49:31.588Z,98586.22
2022-09-28T15:52:03.123Z,98602.47
2022-09-28T15:54:41.729Z,98608.88
2022-09-28T15:57:30.125Z,98606.88
2022-09-28T15:59:57.095Z,98601.63
2022-09-28T16:02:25.417Z,98606.97
2022-09-28T16:04:55.319Z,98604.63
2022-09-28T16:07:34.013Z,98598.91
2022-09-28T16:10:25.443Z,98598.09
2022-09-28T16:13:00.304Z,98602.00
2022-09-28T16:15:30.413Z,98586.94
2022-09-28T16:18:07.143Z,98597.84
2022-09-28T16:20:40.282Z,98596.84
2022-09-28T16:23:16.337Z,98602.47
2022-09-28T16:26:02.178Z,98597.41
2022-09-28T16:28:37.708Z,98599.41
2022-09-28T16:31:27.493Z,98606.25
2022-09-28T16:33:59.813Z,98596.41
2022-09-28T16:36:30.028Z,98596.84
2022-09-28T16:38:57.255Z,98591.97
2022-09-28T16:41:29.052Z,98598.91
2022-09-28T16:44:02.285Z,98604.16
2022-09-28T16:46:37.333Z,98598.09
2022-09-28T16:49:06.255Z,98601.53
2022-09-28T16:51:34.838Z,98590.41
2022-09-28T16:54:46.036Z,98611.19
2022-09-28T16:57:15.262Z,98604.06
2022-09-28T16:59:42.717Z,98614.38
2022-09-28T17:02:42.304Z,98612.78
2022-09-28T17:05:07.284Z,98618.81
2022-09-28T17:07:34.751Z,98624.84
2022-09-28T17:10:01.827Z,98626.63
2022-09-28T17:12:30.257Z,98630.88
2022-09-28T17:14:57.722Z,98636.13
2022-09-28T17:17:29.888Z,98634.59
2022-09-28T17:19:56.855Z,98631.69
2022-09-28T17:22:23.772Z,98638.19
2022-09-28T17:24:50.599Z,98630.53
2022-09-28T17:27:19.672Z,98634.59
2022-09-28T17:29:46.870Z,98633.41
2022-09-28T17:32:18.925Z,98628.72
2022-09-28T17:34:55.854Z,98625.72
2022-09-28T17:37:28.654Z,98629.53
2022-09-28T17:39:55.582Z,98632.97
2022-09-28T17:42:22.670Z,98636.19
2022-09-28T17:44:49.522Z,98639.47
2022-09-28T17:47:16.504Z,98631.44
2022-09-28T17:49:45.999Z,98634.59
2022-09-28T17:52:13.830Z,98628.72
2022-09-28T17:54:40.754Z,98631.88
2022-09-28T17:57:10.259Z,98641.56
2022-09-28T17:59:37.127Z,98645.44
2022-09-28T18:02:04.128Z,98645.81
2022-09-28T18:04:50.753Z,98638.31
2022-09-28T18:07:17.914Z,98641.78
2022-09-28T18:09:44.915Z,98650.88
2022-09-28T18:12:11.929Z,98643.50
2022-09-28T18:14:40.059Z,98643.31
2022-09-28T18:17:07.007Z,98641.66
2022-09-28T18:19:33.876Z,98642.03
2022-09-28T18:22:01.550Z,98636.19
2022-09-28T18:24:28.888Z,98635.16
2022-09-28T18:26:56.193Z,98634.00
2022-09-28T18:29:23.192Z,98628.50
2022-09-28T18:31:50.553Z,98622.44
2022-09-28T18:34:17.793Z,98623.91
2022-09-28T18:36:44.906Z,98617.72
2022-09-28T18:39:11.996Z,98626.59
2022-09-28T18:41:39.051Z,98622.78
2022-09-28T18:44:06.096Z,98619.28
2022-09-28T18:46:36.445Z,98627.59
2022-09-28T18:49:04.662Z,98631.78
2022-09-28T18:51:31.562Z,98634.56
2022-09-28T18:53:58.449Z,98632.13
2022-09-28T18:56:26.924Z,98633.56
2022-09-28T18:58:53.969Z,98638.34
2022-09-28T19:01:30.463Z,98642.25
2022-09-28T19:04:03.658Z,98638.44
2022-09-28T19:06:31.940Z,98632.84
2022-09-28T19:08:59.017Z,98634.28
2022-09-28T19:11:27.134Z,98628.56
2022-09-28T19:13:55.649Z,98629.03
2022-09-28T19:16:28.558Z,98624.16
2022-09-28T19:18:59.148Z,98637.00
2022-09-28T19:21:26.897Z,98643.50
2022-09-28T19:23:55.622Z,98634.22
2022-09-28T19:26:27.473Z,98637.09
2022-09-28T19:28:57.181Z,98643.50
2022-09-28T19:31:24.836Z,98641.88
2022-09-28T19:33:52.130Z,98641.88
2022-09-28T19:36:22.538Z,98646.03
2022-09-28T19:38:51.355Z,98649.09
2022-09-28T19:41:42.813Z,98653.44
2022-09-28T19:44:31.805Z,98656.78
2022-09-28T19:47:10.014Z,98653.16
2022-09-28T19:49:39.376Z,98659.81
2022-09-28T19:52:17.899Z,98660.31
2022-09-28T19:54:57.050Z,98662.09
2022-09-28T19:57:27.416Z,98664.38
2022-09-28T20:00:00.910Z,98658.31
2022-09-28T20:02:33.737Z,98671.22
2022-09-28T20:05:00.913Z,98673.50
2022-09-28T20:07:27.832Z,98678.00
2022-09-28T20:09:54.665Z,98674.41
2022-09-28T20:12:22.354Z,98675.47
2022-09-28T20:14:49.269Z,98674.75
2022-09-28T20:17:16.335Z,98675.84
2022-09-28T20:19:43.323Z,98682.69
2022-09-28T20:22:11.139Z,98682.50
2022-09-28T20:24:37.992Z,98688.75
2022-09-28T20:27:04.855Z,98689.19
2022-09-28T20:29:33.606Z,98697.69
2022-09-28T20:32:01.246Z,98700.31
2022-09-28T20:34:28.112Z,98700.13
2022-09-28T20:36:55.049Z,98706.81
2022-09-28T20:39:21.891Z,98704.19
2022-09-28T20:41:49.271Z,98718.56
2022-09-28T20:44:16.806Z,98723.88
2022-09-28T20:46:44.343Z,98724.25
2022-09-28T20:49:11.869Z,98720.66
2022-09-28T20:51:38.798Z,98728.16
2022-09-28T20:54:05.870Z,98728.16
2022-09-28T20:56:40.547Z,98727.16
2022-09-28T20:59:10.139Z,98727.53
2022-09-28T21:01:37.780Z,98724.06
2022-09-28T21:04:06.986Z,98720.66
2022-09-28T21:06:36.016Z,98729.13
2022-09-28T21:09:04.781Z,98722.63
2022-09-28T21:11:32.389Z,98722.63
2022-09-28T21:14:01.861Z,98727.03
2022-09-28T21:16:31.125Z,98728.50
2022-09-28T21:18:58.821Z,98733.75
2022-09-28T21:21:26.734Z,98726.78
2022-09-28T21:23:57.731Z,98732.09
2022-09-28T21:26:27.019Z,98732.66
2022-09-28T21:28:56.935Z,98729.75
2022-09-28T21:31:28.745Z,98730.22
2022-09-28T21:33:59.275Z,98740.69
2022-09-28T21:36:26.390Z,98736.72
2022-09-28T21:38:55.637Z,98732.47
2022-09-28T21:41:24.266Z,98728.06
2022-09-28T21:43:52.148Z,98732.75
2022-09-28T21:46:19.107Z,98736.00
2022-09-28T21:48:46.116Z,98741.44
2022-09-28T21:51:15.040Z,98744.03
2022-09-28T21:53:42.779Z,98741.59
2022-09-28T21:56:11.695Z,98734.63
2022-09-28T21:58:40.281Z,98745.22
2022-09-28T22:01:19.607Z,98746.84
2022-09-28T22:03:51.712Z,98748.47
2022-09-28T22:06:20.866Z,98750.44
2022-09-28T22:08:49.299Z,98752.88
2022-09-28T22:11:21.955Z,98757.16
2022-09-28T22:13:53.797Z,98757.31
2022-09-28T22:16:23.049Z,98761.41
2022-09-28T22:18:50.672Z,98758.50
2022-09-28T22:21:23.111Z,98754.09
2022-09-28T22:23:50.547Z,98757.31
2022-09-28T22:26:25.418Z,98754.09
2022-09-28T22:29:00.303Z,98757.31
2022-09-28T22:31:30.984Z,98752.28
2022-09-28T22:33:58.316Z,98755.06
2022-09-28T22:36:26.147Z,98750.44
2022-09-28T22:38:54.685Z,98757.31
2022-09-28T22:41:21.933Z,98754.72
2022-09-28T22:43:50.662Z,98758.31
2022-09-28T22:46:20.141Z,98743.59
2022-09-28T22:48:49.296Z,98761.13
2022-09-28T22:51:16.649Z,98759.22
2022-09-28T22:53:44.279Z,98763.34
2022-09-28T22:56:15.972Z,98761.50
2022-09-28T22:58:45.291Z,98759.91
2022-09-28T23:01:21.414Z,98752.59
2022-09-28T23:03:49.299Z,98757.28
2022-09-28T23:06:18.238Z,98756.59
2022-09-28T23:08:46.455Z,98759.13
2022-09-28T23:11:13.656Z,98769.75
2022-09-28T23:13:41.173Z,98756.41
2022-09-28T23:16:10.830Z,98769.41
2022-09-28T23:18:40.979Z,98767.88
2022-09-28T23:21:16.132Z,98766.69
2022-09-28T23:23:43.845Z,98759.00
2022-09-28T23:26:22.350Z,98759.19
2022-09-28T23:28:49.239Z,98759.66
2022-09-28T23:31:23.343Z,98768.47
2022-09-28T23:33:51.237Z,98765.25
2022-09-28T23:36:18.663Z,98762.16
2022-09-28T23:38:45.522Z,98763.41
2022-09-28T23:41:12.455Z,98773.28
2022-09-28T23:43:39.307Z,98764.81
2022-09-28T23:46:06.553Z,98766.44
2022-09-28T23:48:33.772Z,98773.47
2022-09-28T23:51:01.196Z,98774.81
2022-09-28T23:53:28.615Z,98779.22
2022-09-28T23:55:55.757Z,98781.03
2022-09-28T23:58:22.756Z,98781.38
